createdAt,value
2023-05-01T00:00:27.874Z,66.71
2023-05-01T00:02:54.857Z,66.60
2023-05-01T00:05:23.178Z,66.62
2023-05-01T00:07:53.754Z,66.24
2023-05-01T00:10:24.348Z,65.96
2023-05-01T00:12:51.197Z,66.66
2023-05-01T00:15:18.457Z,66.84
2023-05-01T00:17:45.254Z,66.83
2023-05-01T00:20:12.388Z,66.92
2023-05-01T00:22:39.904Z,67.65
2023-05-01T00:25:07.100Z,67.31
2023-05-01T00:27:33.998Z,67.25
2023-05-01T00:30:01.784Z,67.41
2023-05-01T00:32:28.675Z,67.38
2023-05-01T00:34:57.915Z,67.40
2023-05-01T00:37:24.760Z,67.56
2023-05-01T00:40:17.020Z,67.52
2023-05-01T00:43:08.620Z,67.24
2023-05-01T00:45:35.989Z,67.34
2023-05-01T00:48:03.432Z,67.81
2023-05-01T00:50:32.574Z,67.82
2023-05-01T00:52:59.605Z,67.46
2023-05-01T00:55:32.724Z,67.34
2023-05-01T00:58:01.884Z,67.46
2023-05-01T01:00:29.452Z,67.96
2023-05-01T01:02:58.521Z,68.50
2023-05-01T01:05:30.842Z,68.75
2023-05-01T01:08:23.968Z,68.72
2023-05-01T01:10:56.369Z,68.80
2023-05-01T01:13:37.213Z,69.24
2023-05-01T01:19:28.872Z,70.29
2023-05-01T01:22:08.235Z,69.69
2023-05-01T01:24:59.940Z,70.08
2023-05-01T01:27:51.939Z,69.44
2023-05-01T01:30:32.859Z,69.63
2023-05-01T01:33:09.488Z,69.13
2023-05-01T01:35:42.974Z,68.84
2023-05-01T01:38:17.560Z,68.44
2023-05-01T01:40:59.897Z,68.37
2023-05-01T01:43:33.046Z,68.63
2023-05-01T01:46:04.508Z,68.60
2023-05-01T01:48:43.737Z,68.78
2023-05-01T01:51:16.415Z,68.95
2023-05-01T01:54:13.276Z,68.94
2023-05-01T01:56:42.636Z,69.38
2023-05-01T01:59:11.344Z,69.26
2023-05-01T02:01:41.295Z,69.28
2023-05-01T02:04:34.653Z,69.35
2023-05-01T02:07:04.735Z,69.33
2023-05-01T02:09:32.423Z,69.55
2023-05-01T02:12:06.922Z,69.91
2023-05-01T02:14:35.168Z,70.64
2023-05-01T02:17:03.629Z,71.56
2023-05-01T02:19:34.865Z,71.03
2023-05-01T02:22:04.453Z,70.76
2023-05-01T02:24:36.831Z,71.06
2023-05-01T02:27:11.351Z,70.85
2023-05-01T02:29:38.895Z,71.04
2023-05-01T02:32:06.982Z,71.04
2023-05-01T02:34:37.205Z,71.26
2023-05-01T02:37:07.854Z,71.33
2023-05-01T02:39:35.598Z,71.04
2023-05-01T02:42:04.066Z,70.74
2023-05-01T02:44:41.779Z,70.79
2023-05-01T02:47:14.788Z,70.61
2023-05-01T02:49:42.030Z,70.39
2023-05-01T02:52:10.354Z,70.62
2023-05-01T02:54:39.009Z,70.05
2023-05-01T02:57:07.473Z,70.26
2023-05-01T02:59:36.672Z,70.60
2023-05-01T03:02:04.093Z,70.99
2023-05-01T03:04:31.043Z,71.17
2023-05-01T03:06:58.244Z,71.22
2023-05-01T03:09:26.460Z,71.42
2023-05-01T03:11:54.826Z,71.47
2023-05-01T03:14:21.584Z,71.45
2023-05-01T03:16:49.989Z,71.39
2023-05-01T03:19:17.948Z,71.30
2023-05-01T03:21:45.457Z,71.44
2023-05-01T03:27:04.875Z,71.66
2023-05-01T03:29:31.733Z,71.53
2023-05-01T03:31:59.171Z,71.75
2023-05-01T03:34:26.262Z,71.78
2023-05-01T03:36:55.763Z,71.82
2023-05-01T03:39:24.292Z,71.69
2023-05-01T03:42:11.737Z,72.31
2023-05-01T03:44:41.699Z,72.50
2023-05-01T03:47:08.745Z,72.49
2023-05-01T03:49:40.245Z,72.75
2023-05-01T03:52:07.407Z,72.98
2023-05-01T03:54:35.934Z,73.20
2023-05-01T03:57:24.876Z,73.23
2023-05-01T03:59:52.558Z,73.68
2023-05-01T04:02:24.906Z,73.35
2023-05-01T04:05:16.783Z,73.35
2023-05-01T04:07:50.070Z,74.17
2023-05-01T04:10:17.603Z,74.15
2023-05-01T04:12:52.601Z,73.98
2023-05-01T04:15:21.430Z,74.13
2023-05-01T04:17:48.947Z,73.66
2023-05-01T04:20:17.943Z,74.37
2023-05-01T04:22:44.997Z,73.95
2023-05-01T04:25:11.821Z,73.87
2023-05-01T04:27:39.131Z,73.70
2023-05-01T04:30:06.401Z,73.91
2023-05-01T04:32:36.454Z,74.15
2023-05-01T04:35:04.300Z,74.07
2023-05-01T04:37:31.448Z,74.13
2023-05-01T04:39:58.641Z,74.78
2023-05-01T04:42:33.764Z,73.16
2023-05-01T04:45:00.836Z,73.69
2023-05-01T04:47:28.056Z,73.90
2023-05-01T04:49:55.232Z,74.45
2023-05-01T04:52:22.230Z,74.56
2023-05-01T04:54:54.102Z,74.45
2023-05-01T04:57:24.878Z,74.29
2023-05-01T04:59:52.869Z,74.47
2023-05-01T05:02:19.862Z,74.39
2023-05-01T05:05:12.921Z,74.46
2023-05-01T05:07:41.405Z,74.34
2023-05-01T05:10:27.253Z,74.02
2023-05-01T05:13:14.341Z,73.86
2023-05-01T05:15:43.013Z,74.19
2023-05-01T05:18:12.177Z,74.05
2023-05-01T05:20:39.331Z,74.09
2023-05-01T05:23:07.833Z,74.01
2023-05-01T05:25:35.902Z,74.15
2023-05-01T05:28:04.440Z,74.04
2023-05-01T05:30:32.927Z,73.87
2023-05-01T05:33:01.001Z,73.74
2023-05-01T05:35:28.001Z,73.64
2023-05-01T05:37:55.359Z,73.21
2023-05-01T05:40:23.599Z,72.90
2023-05-01T05:42:57.517Z,72.77
2023-05-01T05:45:27.694Z,72.99
2023-05-01T05:47:54.727Z,72.17
2023-05-01T05:50:22.863Z,71.54
2023-05-01T05:52:49.617Z,70.13
2023-05-01T05:55:20.948Z,69.44
2023-05-01T05:58:05.079Z,67.55
2023-05-01T06:00:32.265Z,67.01
2023-05-01T06:03:04.355Z,68.21
2023-05-01T06:05:34.012Z,67.13
2023-05-01T06:08:00.945Z,67.05
2023-05-01T06:10:29.513Z,68.20
2023-05-01T06:15:50.064Z,67.13
2023-05-01T06:18:17.127Z,67.21
2023-05-01T06:20:48.288Z,67.56
2023-05-01T06:23:15.563Z,65.93
2023-05-01T06:25:50.669Z,67.49
2023-05-01T06:28:18.875Z,65.95
2023-05-01T06:30:46.381Z,65.99
2023-05-01T06:33:13.676Z,65.65
2023-05-01T06:35:43.365Z,65.94
2023-05-01T06:38:10.207Z,64.72
2023-05-01T06:40:37.693Z,66.02
2023-05-01T06:43:08.697Z,65.23
2023-05-01T06:45:36.976Z,65.11
2023-05-01T06:48:04.709Z,64.86
2023-05-01T06:50:31.501Z,63.93
2023-05-01T06:53:00.931Z,65.08
2023-05-01T06:55:27.702Z,65.02
2023-05-01T06:57:55.542Z,64.64
2023-05-01T07:00:22.466Z,64.39
2023-05-01T07:03:13.898Z,64.16
2023-05-01T07:05:40.862Z,64.32
2023-05-01T07:08:08.288Z,65.34
2023-05-01T07:10:35.455Z,65.49
2023-05-01T07:13:02.268Z,64.70
2023-05-01T07:15:30.976Z,63.42
2023-05-01T07:17:57.762Z,62.87
2023-05-01T07:20:24.621Z,62.87
2023-05-01T07:22:51.519Z,63.63
2023-05-01T07:25:19.509Z,62.74
2023-05-01T07:27:46.964Z,61.75
2023-05-01T07:30:14.341Z,63.15
2023-05-01T07:32:41.373Z,62.60
2023-05-01T07:35:09.984Z,61.82
2023-05-01T07:37:36.931Z,61.68
2023-05-01T07:40:03.890Z,61.73
2023-05-01T07:45:22.292Z,62.01
2023-05-01T07:47:49.067Z,61.85
2023-05-01T07:50:17.510Z,62.99
2023-05-01T07:52:44.458Z,63.45
2023-05-01T07:55:12.372Z,62.19
2023-05-01T07:57:41.025Z,62.92
2023-05-01T08:00:11.849Z,62.40
2023-05-01T08:02:41.365Z,61.63
2023-05-01T08:05:09.956Z,62.66
2023-05-01T08:07:36.732Z,62.10
2023-05-01T08:10:04.096Z,63.39
2023-05-01T08:12:31.140Z,61.70
2023-05-01T08:15:24.337Z,61.78
2023-05-01T08:17:51.406Z,61.64
2023-05-01T08:20:18.379Z,62.45
2023-05-01T08:22:45.410Z,62.14
2023-05-01T08:25:12.120Z,61.85
2023-05-01T08:27:40.163Z,62.71
2023-05-01T08:30:07.629Z,62.02
2023-05-01T08:32:36.523Z,62.33
2023-05-01T08:35:03.945Z,61.67
2023-05-01T08:37:30.701Z,61.60
2023-05-01T08:39:57.693Z,60.95
2023-05-01T08:42:32.132Z,62.67
2023-05-01T08:45:01.244Z,61.71
2023-05-01T08:47:29.264Z,62.84
2023-05-01T08:52:51.460Z,61.67
2023-05-01T08:55:21.014Z,61.38
2023-05-01T08:57:49.562Z,60.88
2023-05-01T09:00:21.993Z,60.60
2023-05-01T09:02:51.059Z,60.74
2023-05-01T09:05:19.569Z,60.73
2023-05-01T09:07:47.690Z,60.32
2023-05-01T09:10:18.557Z,58.39
2023-05-01T09:12:54.923Z,57.99
2023-05-01T09:15:23.981Z,58.86
2023-05-01T09:17:50.972Z,57.04
2023-05-01T09:20:19.766Z,57.10
2023-05-01T09:22:47.992Z,56.67
2023-05-01T09:25:14.724Z,57.42
2023-05-01T09:27:42.512Z,56.52
2023-05-01T09:30:10.057Z,56.17
2023-05-01T09:32:37.407Z,55.38
2023-05-01T09:35:10.614Z,55.62
2023-05-01T09:37:39.042Z,55.18
2023-05-01T09:40:14.995Z,55.33
2023-05-01T09:42:53.340Z,56.52
2023-05-01T09:45:20.713Z,55.94
2023-05-01T09:47:48.402Z,54.96
2023-05-01T09:50:30.853Z,55.07
2023-05-01T09:52:58.079Z,55.75
2023-05-01T09:55:25.779Z,56.53
2023-05-01T09:57:53.741Z,54.61
2023-05-01T10:00:20.621Z,52.96
2023-05-01T10:02:51.103Z,54.00
2023-05-01T10:05:18.995Z,53.67
2023-05-01T10:08:01.019Z,54.55
2023-05-01T10:10:29.714Z,53.27
2023-05-01T10:12:56.526Z,52.62
2023-05-01T10:15:37.066Z,53.34
2023-05-01T10:18:04.800Z,53.66
2023-05-01T10:20:33.032Z,53.93
2023-05-01T10:23:00.825Z,53.08
2023-05-01T10:25:29.685Z,54.59
2023-05-01T10:27:59.124Z,53.32
2023-05-01T10:30:26.633Z,55.91
2023-05-01T10:32:53.627Z,55.07
2023-05-01T10:35:26.177Z,55.55
2023-05-01T10:38:02.347Z,53.20
2023-05-01T10:40:44.784Z,54.40
2023-05-01T10:43:26.960Z,54.46
2023-05-01T10:46:12.418Z,52.78
2023-05-01T10:48:41.101Z,53.28
2023-05-01T10:51:09.720Z,53.59
2023-05-01T10:53:36.916Z,52.60
2023-05-01T10:56:06.053Z,52.67
2023-05-01T10:58:37.281Z,53.03
2023-05-01T11:01:31.195Z,52.88
2023-05-01T11:04:20.449Z,52.62
2023-05-01T11:07:03.472Z,51.66
2023-05-01T11:09:42.162Z,52.45
2023-05-01T11:12:11.964Z,51.89
2023-05-01T11:14:54.744Z,52.86
2023-05-01T11:17:40.155Z,52.33
2023-05-01T11:20:12.396Z,52.76
2023-05-01T11:22:40.916Z,52.52
2023-05-01T11:25:22.489Z,51.51
2023-05-01T11:27:53.986Z,52.85
2023-05-01T11:30:22.320Z,51.42
2023-05-01T11:32:52.816Z,52.24
2023-05-01T11:35:23.044Z,52.53
2023-05-01T11:37:51.045Z,52.20
2023-05-01T11:40:30.138Z,51.81
2023-05-01T11:43:05.139Z,51.35
2023-05-01T11:45:38.933Z,51.51
2023-05-01T11:48:15.460Z,51.95
2023-05-01T11:50:47.083Z,51.97
2023-05-01T11:53:16.142Z,51.55
2023-05-01T11:55:43.953Z,51.94
2023-05-01T11:58:12.441Z,51.62
2023-05-01T12:00:41.427Z,51.06
2023-05-01T12:03:14.580Z,51.51
2023-05-01T12:05:43.931Z,51.48
2023-05-01T12:08:17.534Z,51.59
2023-05-01T12:10:46.430Z,51.30
2023-05-01T12:13:14.676Z,51.38
2023-05-01T12:15:47.203Z,52.34
2023-05-01T12:18:16.039Z,50.98
2023-05-01T12:20:43.798Z,51.78
2023-05-01T12:23:13.471Z,51.81
2023-05-01T12:25:41.151Z,51.70
2023-05-01T12:28:15.925Z,52.74
2023-05-01T12:30:44.610Z,52.36
2023-05-01T12:33:20.748Z,51.56
2023-05-01T12:35:50.085Z,51.96
2023-05-01T12:38:22.073Z,51.93
2023-05-01T12:40:57.252Z,51.73
2023-05-01T12:43:33.506Z,51.07
2023-05-01T12:46:03.132Z,50.93
2023-05-01T12:48:32.776Z,51.46
2023-05-01T12:51:03.011Z,51.38
2023-05-01T12:53:30.477Z,51.50
2023-05-01T12:56:24.397Z,51.49
2023-05-01T12:58:54.272Z,52.01
2023-05-01T13:01:47.102Z,51.52
2023-05-01T13:04:21.773Z,52.73
2023-05-01T13:06:54.153Z,52.17
2023-05-01T13:09:25.812Z,52.04
2023-05-01T13:12:01.893Z,52.02
2023-05-01T13:14:35.458Z,51.31
2023-05-01T13:17:02.606Z,51.73
2023-05-01T13:19:29.804Z,51.42
2023-05-01T13:21:58.343Z,52.53
2023-05-01T13:24:37.033Z,51.29
2023-05-01T13:30:01.275Z,51.15
2023-05-01T13:32:32.091Z,50.84
2023-05-01T13:35:02.802Z,50.79
2023-05-01T13:37:29.769Z,51.46
2023-05-01T13:39:57.708Z,51.33
2023-05-01T13:42:25.610Z,51.04
2023-05-01T13:44:54.403Z,51.93
2023-05-01T13:47:23.718Z,50.23
2023-05-01T13:49:50.506Z,49.76
2023-05-01T13:52:20.901Z,47.93
2023-05-01T13:54:48.778Z,49.68
2023-05-01T13:57:18.271Z,48.22
2023-05-01T13:59:47.116Z,48.29
2023-05-01T14:02:31.950Z,48.49
2023-05-01T14:05:00.867Z,48.84
2023-05-01T14:07:28.283Z,49.17
2023-05-01T14:09:59.142Z,48.97
2023-05-01T14:15:23.037Z,50.10
2023-05-01T14:17:50.658Z,49.04
2023-05-01T14:20:17.481Z,48.83
2023-05-01T14:22:48.098Z,48.67
2023-05-01T14:25:24.084Z,49.20
2023-05-01T14:27:55.940Z,48.90
2023-05-01T14:30:27.094Z,48.72
2023-05-01T14:32:58.202Z,48.25
2023-05-01T14:35:25.095Z,48.25
2023-05-01T14:37:53.080Z,47.93
2023-05-01T14:40:26.460Z,48.73
2023-05-01T14:42:56.072Z,48.53
2023-05-01T14:45:23.378Z,48.99
2023-05-01T14:47:50.908Z,49.07
2023-05-01T14:50:23.328Z,49.32
2023-05-01T14:52:55.069Z,49.44
2023-05-01T14:55:27.595Z,49.64
2023-05-01T14:57:57.453Z,49.63
2023-05-01T15:00:24.917Z,49.23
2023-05-01T15:02:52.418Z,48.89
2023-05-01T15:05:21.045Z,48.79
2023-05-01T15:07:47.799Z,49.16
2023-05-01T15:10:14.598Z,48.81
2023-05-01T15:12:41.486Z,48.94
2023-05-01T15:15:08.988Z,49.36
2023-05-01T15:17:38.058Z,48.79
2023-05-01T15:20:06.074Z,49.72
2023-05-01T15:22:33.032Z,49.64
2023-05-01T15:25:00.116Z,50.05
2023-05-01T15:27:29.950Z,49.62
2023-05-01T15:29:56.653Z,49.98
2023-05-01T15:32:24.267Z,50.11
2023-05-01T15:34:51.892Z,49.85
2023-05-01T15:37:19.412Z,50.09
2023-05-01T15:39:54.076Z,49.67
2023-05-01T15:42:46.049Z,49.75
2023-05-01T15:45:14.305Z,49.55
2023-05-01T15:47:41.086Z,50.46
2023-05-01T15:50:10.415Z,49.70
2023-05-01T15:52:37.234Z,49.68
2023-05-01T15:55:07.697Z,49.80
2023-05-01T15:57:35.972Z,50.23
2023-05-01T16:00:03.969Z,50.38
2023-05-01T16:02:32.161Z,50.28
2023-05-01T16:05:00.912Z,50.20
2023-05-01T16:07:29.824Z,50.38
2023-05-01T16:09:57.906Z,50.64
2023-05-01T16:12:28.403Z,50.42
2023-05-01T16:14:55.284Z,50.89
2023-05-01T16:17:25.393Z,50.77
2023-05-01T16:19:52.952Z,50.16
2023-05-01T16:22:20.497Z,50.62
2023-05-01T16:24:47.981Z,50.61
2023-05-01T16:27:18.037Z,50.84
2023-05-01T16:29:45.490Z,51.28
2023-05-01T16:32:14.025Z,51.47
2023-05-01T16:34:41.076Z,51.43
2023-05-01T16:37:07.909Z,51.60
2023-05-01T16:39:36.824Z,51.81
2023-05-01T16:42:03.900Z,51.82
2023-05-01T16:44:30.892Z,51.38
2023-05-01T16:46:58.751Z,51.67
2023-05-01T16:49:31.001Z,52.31
2023-05-01T16:51:57.885Z,52.14
2023-05-01T16:54:27.417Z,52.08
2023-05-01T16:56:54.272Z,52.27
2023-05-01T16:59:22.517Z,52.44
2023-05-01T17:01:49.288Z,52.49
2023-05-01T17:04:17.134Z,52.79
2023-05-01T17:06:44.111Z,52.68
2023-05-01T17:09:15.017Z,52.68
2023-05-01T17:11:55.270Z,52.83
2023-05-01T17:14:23.851Z,53.23
2023-05-01T17:16:50.880Z,53.10
2023-05-01T17:19:20.073Z,53.54
2023-05-01T17:22:12.106Z,53.59
2023-05-01T17:24:40.194Z,53.51
2023-05-01T17:27:07.520Z,53.50
2023-05-01T17:32:36.372Z,54.06
2023-05-01T17:35:05.606Z,54.00
2023-05-01T17:37:34.231Z,54.36
2023-05-01T17:40:03.209Z,53.85
2023-05-01T17:42:30.971Z,54.03
2023-05-01T17:45:23.933Z,54.30
2023-05-01T17:47:51.029Z,54.41
2023-05-01T17:53:34.373Z,54.28
2023-05-01T17:56:04.440Z,54.32
2023-05-01T17:58:32.282Z,54.25
2023-05-01T18:01:03.436Z,54.48
2023-05-01T18:03:30.796Z,54.49
2023-05-01T18:05:58.953Z,54.51
2023-05-01T18:08:31.781Z,54.85
2023-05-01T18:10:59.163Z,54.84
2023-05-01T18:13:30.519Z,55.11
2023-05-01T18:15:57.917Z,54.97
2023-05-01T18:18:25.448Z,55.05
2023-05-01T18:20:53.515Z,55.59
2023-05-01T18:23:21.546Z,55.19
2023-05-01T18:25:49.483Z,55.48
2023-05-01T18:28:17.464Z,55.51
2023-05-01T18:30:48.524Z,55.53
2023-05-01T18:33:20.426Z,55.91
2023-05-01T18:35:48.100Z,55.88
2023-05-01T18:38:16.295Z,55.79
2023-05-01T18:40:43.517Z,55.88
2023-05-01T18:43:12.285Z,55.90
2023-05-01T18:45:40.110Z,55.83
2023-05-01T18:48:10.377Z,56.16
2023-05-01T18:50:37.668Z,56.13
2023-05-01T18:53:05.157Z,56.27
2023-05-01T18:55:32.557Z,56.88
2023-05-01T18:58:03.247Z,56.78
2023-05-01T19:00:30.669Z,56.80
2023-05-01T19:02:58.634Z,57.16
2023-05-01T19:05:26.016Z,56.71
2023-05-01T19:10:38.474Z,56.97
2023-05-01T19:13:06.995Z,57.52
2023-05-01T19:15:36.223Z,57.90
2023-05-01T19:18:07.465Z,57.71
2023-05-01T19:20:36.066Z,57.79
2023-05-01T19:23:04.142Z,57.83
2023-05-01T19:25:31.470Z,57.88
2023-05-01T19:28:01.476Z,58.04
2023-05-01T19:30:28.885Z,58.17
2023-05-01T19:32:57.951Z,58.12
2023-05-01T19:35:27.498Z,58.47
2023-05-01T19:38:01.409Z,58.45
2023-05-01T19:40:32.981Z,58.30
2023-05-01T19:43:02.064Z,58.67
2023-05-01T19:45:29.900Z,58.94
2023-05-01T19:47:58.392Z,58.72
2023-05-01T19:50:28.524Z,59.32
2023-05-01T19:52:57.494Z,59.37
2023-05-01T19:55:24.955Z,59.10
2023-05-01T19:57:52.028Z,59.08
2023-05-01T20:00:22.685Z,58.62
2023-05-01T20:02:50.872Z,59.08
2023-05-01T20:05:18.763Z,59.00
2023-05-01T20:07:45.682Z,59.36
2023-05-01T20:10:12.642Z,59.70
2023-05-01T20:12:40.412Z,59.50
2023-05-01T20:15:08.189Z,59.38
2023-05-01T20:17:36.942Z,59.39
2023-05-01T20:20:04.348Z,59.83
2023-05-01T20:22:32.914Z,59.24
2023-05-01T20:25:02.047Z,59.27
2023-05-01T20:27:29.211Z,59.42
2023-05-01T20:29:57.106Z,59.88
2023-05-01T20:32:24.404Z,59.96
2023-05-01T20:34:52.221Z,60.11
2023-05-01T20:37:19.067Z,59.91
2023-05-01T20:39:46.941Z,59.96
2023-05-01T20:42:14.472Z,60.23
2023-05-01T20:45:07.072Z,59.49
2023-05-01T20:47:59.473Z,59.48
2023-05-01T20:50:26.802Z,59.66
2023-05-01T20:52:54.987Z,59.33
2023-05-01T20:55:46.747Z,59.93
2023-05-01T20:58:14.070Z,59.52
2023-05-01T21:00:42.350Z,59.60
2023-05-01T21:03:37.165Z,59.85
2023-05-01T21:06:04.468Z,60.14
2023-05-01T21:08:31.450Z,59.96
2023-05-01T21:10:58.474Z,60.49
2023-05-01T21:13:27.391Z,60.51
2023-05-01T21:15:55.109Z,60.77
2023-05-01T21:18:22.571Z,60.81
2023-05-01T21:20:49.568Z,61.19
2023-05-01T21:23:17.728Z,60.72
2023-05-01T21:25:44.671Z,60.54
2023-05-01T21:28:13.907Z,60.72
2023-05-01T21:30:44.389Z,60.45
2023-05-01T21:33:15.844Z,60.78
2023-05-01T21:35:45.052Z,60.46
2023-05-01T21:38:14.921Z,60.43
2023-05-01T21:40:43.123Z,60.48
2023-05-01T21:43:11.950Z,60.47
2023-05-01T21:45:43.725Z,60.64
2023-05-01T21:48:15.402Z,60.79
2023-05-01T21:50:42.233Z,61.08
2023-05-01T21:53:09.914Z,60.48
2023-05-01T21:55:36.687Z,60.46
2023-05-01T21:58:03.456Z,60.47
2023-05-01T22:00:30.450Z,60.42
2023-05-01T22:02:57.723Z,60.40
2023-05-01T22:05:25.407Z,60.58
2023-05-01T22:07:52.627Z,60.66
2023-05-01T22:10:20.252Z,60.47
2023-05-01T22:12:49.528Z,60.44
2023-05-01T22:15:17.461Z,60.43
2023-05-01T22:17:45.046Z,60.75
2023-05-01T22:20:12.537Z,60.77
2023-05-01T22:22:40.700Z,60.40
2023-05-01T22:25:11.560Z,60.49
2023-05-01T22:27:38.699Z,60.25
2023-05-01T22:30:06.296Z,60.51
2023-05-01T22:32:34.580Z,60.51
2023-05-01T22:35:02.459Z,60.43
2023-05-01T22:37:31.105Z,60.83
2023-05-01T22:39:58.127Z,60.60
2023-05-01T22:42:25.018Z,60.75
2023-05-01T22:44:53.022Z,60.75
2023-05-01T22:47:19.782Z,61.22
2023-05-01T22:49:46.782Z,61.21
2023-05-01T22:52:13.878Z,61.32
2023-05-01T22:54:40.803Z,61.44
2023-05-01T22:57:07.732Z,61.54
2023-05-01T22:59:38.016Z,61.64
2023-05-01T23:02:05.080Z,61.84
2023-05-01T23:04:32.050Z,62.28
2023-05-01T23:07:01.113Z,62.05
2023-05-01T23:09:32.238Z,62.25
2023-05-01T23:12:00.452Z,62.44
2023-05-01T23:14:27.995Z,62.54
2023-05-01T23:16:54.804Z,62.19
2023-05-01T23:19:24.411Z,62.40
2023-05-01T23:22:05.934Z,62.73
2023-05-01T23:24:42.587Z,62.31
2023-05-01T23:27:12.208Z,62.94
2023-05-01T23:29:40.870Z,63.04
2023-05-01T23:32:18.964Z,62.73
2023-05-01T23:34:46.601Z,62.70
2023-05-01T23:37:17.942Z,62.62
2023-05-01T23:39:45.377Z,62.84
2023-05-01T23:42:13.337Z,62.57
2023-05-01T23:44:40.609Z,62.77
2023-05-01T23:47:07.774Z,63.17
2023-05-01T23:49:35.440Z,63.53
2023-05-01T23:52:02.571Z,64.10
2023-05-01T23:54:29.335Z,64.21
2023-05-01T23:56:57.549Z,64.32
2023-05-01T23:59:24.935Z,64.26
